Time;durP1;ratioP1;P1;durP2;ratioP2;P2;SDS_P1;SDS_P2;PMS_P1;PMS_P2;Temp;Humidity;BMP_temperature;BMP_pressure;BME280_temperature;BME280_humidity;BME280_pressure;Samples;Min_cycle;Max_cycle;Signal;HPM_P1;HPM_P2
2022/06/26 00:03:47;;;;;;;4.82;4.53;;;;;;;;;;10406299;28;20241;-71
2022/06/26 00:08:48;;;;;;;4.07;3.88;;;;;;;;;;10426067;28;20183;-71
2022/06/26 00:13:49;;;;;;;4.40;4.30;;;;;;;;;;10427687;28;20206;-71
2022/06/26 00:18:50;;;;;;;4.20;4.10;;;;;;;;;;10424360;28;20236;-71
2022/06/26 00:23:51;;;;;;;4.35;4.25;;;;;;;;;;10424140;28;20191;-71
2022/06/26 00:28:53;;;;;;;4.45;4.35;;;;;;;;;;10424273;28;20186;-72
2022/06/26 00:33:54;;;;;;;5.15;5.05;;;;;;;;;;10412384;28;20853;-71
2022/06/26 00:38:55;;;;;;;6.20;5.97;;;;;;;;;;10421461;28;20562;-71
2022/06/26 00:43:56;;;;;;;6.88;6.45;;;;;;;;;;10417640;28;21196;-71
2022/06/26 00:48:57;;;;;;;6.43;5.70;;;;;;;;;;10418999;28;20227;-70
2022/06/26 00:53:58;;;;;;;7.88;7.28;;;;;;;;;;10422389;28;20195;-70
2022/06/26 00:59:00;;;;;;;8.00;7.68;;;;;;;;;;10426599;28;20193;-71
2022/06/26 01:04:02;;;;;;;7.70;7.40;;;;;;;;;;10421190;28;21030;-71
2022/06/26 01:09:03;;;;;;;7.97;7.55;;;;;;;;;;10422429;28;20187;-71
2022/06/26 01:14:05;;;;;;;7.80;7.35;;;;;;;;;;10420253;28;20238;-71
2022/06/26 01:19:07;;;;;;;8.18;7.78;;;;;;;;;;10422859;28;20197;-70
2022/06/26 01:24:08;;;;;;;7.50;7.28;;;;;;;;;;10418623;28;20183;-70
2022/06/26 01:29:10;;;;;;;6.68;6.47;;;;;;;;;;10422485;28;20198;-71
2022/06/26 01:34:12;;;;;;;7.63;7.13;;;;;;;;;;10404925;28;20287;-70
2022/06/26 01:39:13;;;;;;;8.27;7.57;;;;;;;;;;10420137;28;20171;-70
2022/06/26 01:44:14;;;;;;;6.97;6.68;;;;;;;;;;10423452;28;20601;-71
2022/06/26 01:49:16;;;;;;;7.60;7.28;;;;;;;;;;10412208;28;20242;-71
2022/06/26 01:54:18;;;;;;;7.10;6.80;;;;;;;;;;10430490;28;20211;-71
2022/06/26 01:59:20;;;;;;;8.68;8.20;;;;;;;;;;10426436;28;20184;-70
2022/06/26 02:04:22;;;;;;;6.78;6.47;;;;;;;;;;10419899;28;20298;-71
2022/06/26 02:14:43;;;;;;;7.45;7.15;;;;;;;;;;10426528;28;20207;-70
2022/06/26 02:19:44;;;;;;;8.55;8.05;;;;;;;;;;10431704;28;20942;-71
2022/06/26 02:24:46;;;;;;;9.45;9.00;;;;;;;;;;10428301;28;20187;-71
2022/06/26 02:29:48;;;;;;;8.88;8.38;;;;;;;;;;10410616;28;20673;-70
2022/06/26 02:34:50;;;;;;;9.70;9.10;;;;;;;;;;10411632;28;20215;-70
2022/06/26 02:39:51;;;;;;;9.27;8.60;;;;;;;;;;10428025;28;20183;-71
2022/06/26 02:44:52;;;;;;;8.73;8.32;;;;;;;;;;10412346;28;20220;-71
2022/06/26 02:49:53;;;;;;;9.05;8.35;;;;;;;;;;10408564;28;20695;-70
2022/06/26 02:54:57;;;;;;;8.30;7.90;;;;;;;;;;10423559;28;20198;-70
2022/06/26 03:00:00;;;;;;;8.80;8.10;;;;;;;;;;10409183;28;20717;-70
2022/06/26 03:05:01;;;;;;;9.65;7.78;;;;;;;;;;10396084;28;20258;-70
2022/06/26 03:10:02;;;;;;;7.07;6.88;;;;;;;;;;10406104;28;20207;-70
2022/06/26 03:15:03;;;;;;;8.32;7.55;;;;;;;;;;10425714;28;20230;-70
2022/06/26 03:20:06;;;;;;;6.18;5.70;;;;;;;;;;10409116;28;20824;-70
2022/06/26 03:25:08;;;;;;;6.95;6.47;;;;;;;;;;10428784;28;20175;-70
2022/06/26 03:30:10;;;;;;;6.70;6.15;;;;;;;;;;10406374;28;20175;-70
2022/06/26 03:35:12;;;;;;;6.30;6.10;;;;;;;;;;10422207;28;20214;-70
2022/06/26 03:40:13;;;;;;;7.07;6.57;;;;;;;;;;10404296;28;20198;-71
2022/06/26 03:45:15;;;;;;;6.72;6.43;;;;;;;;;;10425415;28;20187;-71
2022/06/26 03:50:17;;;;;;;7.50;6.93;;;;;;;;;;10419094;28;20644;-70
2022/06/26 03:55:18;;;;;;;7.05;6.43;;;;;;;;;;10421997;28;20194;-71
2022/06/26 04:00:20;;;;;;;7.65;7.00;;;;;;;;;;10422084;28;20202;-70
2022/06/26 04:05:23;;;;;;;6.90;6.60;;;;;;;;;;10421276;28;20246;-71
2022/06/26 04:10:24;;;;;;;7.45;7.05;;;;;;;;;;10421367;28;20646;-71
2022/06/26 04:15:26;;;;;;;7.68;7.13;;;;;;;;;;10406840;28;20234;-70
2022/06/26 04:20:27;;;;;;;7.70;6.97;;;;;;;;;;10422659;28;20198;-70
2022/06/26 04:25:37;;;;;;;7.82;7.22;;;;;;;;;;10421739;28;20249;-71
2022/06/26 04:30:38;;;;;;;8.02;7.38;;;;;;;;;;10419285;28;20219;-70
2022/06/26 04:35:39;;;;;;;7.50;6.90;;;;;;;;;;10406929;28;20618;-70
2022/06/26 04:40:42;;;;;;;8.52;7.88;;;;;;;;;;10417467;28;20217;-70
2022/06/26 04:45:44;;;;;;;9.32;8.57;;;;;;;;;;10422244;28;20662;-70
2022/06/26 04:50:45;;;;;;;10.40;8.50;;;;;;;;;;10406608;28;21030;-70
2022/06/26 04:55:52;;;;;;;8.93;8.30;;;;;;;;;;10417799;28;20216;-70
2022/06/26 05:00:53;;;;;;;10.30;9.15;;;;;;;;;;10420772;28;20214;-70
2022/06/26 05:06:09;;;;;;;8.82;8.15;;;;;;;;;;10410190;28;20488;-70
2022/06/26 05:11:14;;;;;;;8.48;7.93;;;;;;;;;;10424099;28;20657;-70
2022/06/26 05:16:15;;;;;;;8.57;7.88;;;;;;;;;;10419824;28;20221;-70
2022/06/26 05:21:17;;;;;;;8.20;7.70;;;;;;;;;;10411344;28;20202;-70
2022/06/26 05:26:18;;;;;;;7.95;7.45;;;;;;;;;;10427513;28;20273;-69
2022/06/26 05:31:24;;;;;;;8.10;7.57;;;;;;;;;;10412074;28;20214;-70
2022/06/26 05:36:25;;;;;;;7.13;6.53;;;;;;;;;;10412415;28;20202;-68
2022/06/26 05:41:28;;;;;;;6.88;6.47;;;;;;;;;;10414745;28;20186;-68
2022/06/26 05:46:31;;;;;;;8.23;6.25;;;;;;;;;;10419926;28;20187;-68
2022/06/26 05:51:50;;;;;;;7.35;6.95;;;;;;;;;;10407672;28;20729;-69
2022/06/26 05:57:00;;;;;;;6.97;6.68;;;;;;;;;;10420690;28;20206;-69
2022/06/26 06:02:21;;;;;;;6.10;5.70;;;;;;;;;;10422095;28;20211;-69
2022/06/26 06:07:22;;;;;;;5.80;5.45;;;;;;;;;;10418974;28;20218;-70
2022/06/26 06:12:24;;;;;;;3.70;3.60;;;;;;;;;;10424851;28;20605;-70
2022/06/26 06:17:37;;;;;;;3.10;3.00;;;;;;;;;;10411091;28;20853;-70
2022/06/26 06:22:39;;;;;;;3.75;3.35;;;;;;;;;;10423335;28;20178;-70
2022/06/26 06:27:41;;;;;;;3.28;3.17;;;;;;;;;;10382236;28;20187;-69
2022/06/26 06:32:46;;;;;;;3.00;2.92;;;;;;;;;;10395682;28;20230;-69
2022/06/26 06:38:02;;;;;;;3.00;2.80;;;;;;;;;;10404949;28;20186;-69
2022/06/26 06:43:09;;;;;;;2.58;2.47;;;;;;;;;;10416684;28;20248;-70
2022/06/26 06:48:36;;;;;;;2.67;2.60;;;;;;;;;;10417905;28;20345;-69
2022/06/26 06:54:01;;;;;;;2.20;2.10;;;;;;;;;;10412686;28;20229;-69
2022/06/26 06:59:04;;;;;;;1.30;1.30;;;;;;;;;;10396956;28;20172;-70
2022/06/26 07:04:06;;;;;;;1.85;1.75;;;;;;;;;;10414122;28;20219;-69
2022/06/26 07:09:07;;;;;;;1.27;1.25;;;;;;;;;;10397052;28;20187;-69
2022/06/26 07:14:08;;;;;;;2.80;1.65;;;;;;;;;;10412724;28;20207;-69
2022/06/26 07:19:09;;;;;;;2.25;1.50;;;;;;;;;;10414124;28;20195;-68
2022/06/26 07:24:11;;;;;;;1.38;1.38;;;;;;;;;;10412530;28;20278;-68
2022/06/26 07:29:26;;;;;;;2.40;1.77;;;;;;;;;;10396672;28;20212;-68
2022/06/26 07:34:27;;;;;;;1.80;1.80;;;;;;;;;;10414304;28;20243;-69
2022/06/26 07:39:28;;;;;;;1.60;1.60;;;;;;;;;;10417231;28;20229;-69
2022/06/26 07:44:31;;;;;;;1.40;1.33;;;;;;;;;;10403131;28;20175;-70
2022/06/26 07:49:33;;;;;;;1.73;1.50;;;;;;;;;;10403213;28;20253;-70
2022/06/26 07:54:36;;;;;;;1.30;1.30;;;;;;;;;;10417430;28;20292;-70
2022/06/26 07:59:37;;;;;;;1.55;1.48;;;;;;;;;;10404370;28;20176;-69
2022/06/26 08:04:38;;;;;;;1.48;1.48;;;;;;;;;;10414825;28;20221;-69
2022/06/26 08:09:39;;;;;;;1.42;1.38;;;;;;;;;;10420140;28;20187;-69
2022/06/26 08:14:40;;;;;;;1.27;1.17;;;;;;;;;;10420983;28;20302;-70
2022/06/26 08:19:41;;;;;;;1.35;1.10;;;;;;;;;;10419142;28;20295;-69
2022/06/26 08:24:43;;;;;;;2.17;1.30;;;;;;;;;;10421524;28;20178;-71
2022/06/26 08:29:44;;;;;;;1.10;1.00;;;;;;;;;;10421200;28;20188;-68
2022/06/26 08:34:45;;;;;;;1.00;0.90;;;;;;;;;;10403039;28;20235;-68
2022/06/26 08:39:46;;;;;;;0.90;0.90;;;;;;;;;;10400815;28;20274;-70
2022/06/26 08:44:47;;;;;;;0.95;0.95;;;;;;;;;;10417838;28;20199;-69
2022/06/26 08:49:48;;;;;;;1.30;0.82;;;;;;;;;;10415539;28;20238;-69
2022/06/26 08:54:49;;;;;;;0.85;0.85;;;;;;;;;;10405833;28;20283;-69
2022/06/26 08:59:50;;;;;;;1.95;0.73;;;;;;;;;;10421094;28;20179;-69
2022/06/26 09:04:52;;;;;;;0.60;0.60;;;;;;;;;;10406504;28;20757;-69
2022/06/26 09:09:53;;;;;;;0.60;0.60;;;;;;;;;;10422766;28;20334;-69
2022/06/26 09:14:54;;;;;;;1.83;0.68;;;;;;;;;;10420799;28;20210;-69
2022/06/26 09:19:55;;;;;;;0.85;0.85;;;;;;;;;;10424418;28;20205;-69
2022/06/26 09:24:58;;;;;;;0.95;0.60;;;;;;;;;;10428507;28;20186;-68
2022/06/26 09:29:59;;;;;;;0.65;0.65;;;;;;;;;;10424336;28;20618;-68
2022/06/26 09:35:00;;;;;;;0.70;0.70;;;;;;;;;;10425166;28;20215;-70
2022/06/26 09:40:02;;;;;;;1.80;0.70;;;;;;;;;;10425573;28;20183;-69
2022/06/26 09:45:04;;;;;;;0.93;0.70;;;;;;;;;;10425534;28;20174;-69
2022/06/26 09:50:07;;;;;;;0.60;0.60;;;;;;;;;;10422663;28;20230;-70
2022/06/26 09:55:08;;;;;;;1.17;0.60;;;;;;;;;;10425221;28;20254;-68
2022/06/26 10:00:10;;;;;;;1.08;0.50;;;;;;;;;;10425625;28;20187;-69
2022/06/26 10:10:35;;;;;;;1.35;1.27;;;;;;;;;;10426273;28;20260;-69
2022/06/26 10:15:41;;;;;;;0.60;0.60;;;;;;;;;;10428906;28;20310;-69
2022/06/26 10:20:42;;;;;;;1.10;0.50;;;;;;;;;;10423524;28;20215;-69
2022/06/26 10:25:45;;;;;;;0.63;0.63;;;;;;;;;;10421594;28;20186;-69
2022/06/26 10:30:46;;;;;;;0.50;0.50;;;;;;;;;;10426861;28;20294;-69
2022/06/26 10:35:49;;;;;;;0.40;0.40;;;;;;;;;;10415149;28;20211;-69
2022/06/26 10:46:12;;;;;;;1.48;0.60;;;;;;;;;;10421539;28;20183;-68
2022/06/26 10:51:23;;;;;;;0.40;0.40;;;;;;;;;;10421948;28;20231;-68
2022/06/26 10:56:24;;;;;;;1.58;0.40;;;;;;;;;;10421852;28;21096;-68
2022/06/26 11:01:27;;;;;;;0.47;0.45;;;;;;;;;;10418417;28;20306;-68
2022/06/26 11:06:28;;;;;;;0.52;0.40;;;;;;;;;;10418511;28;20175;-69
2022/06/26 11:11:33;;;;;;;0.50;0.50;;;;;;;;;;10427661;28;20179;-70
2022/06/26 11:16:44;;;;;;;0.70;0.50;;;;;;;;;;10417758;28;20301;-69
2022/06/26 11:21:45;;;;;;;0.82;0.50;;;;;;;;;;10417852;28;20229;-68
2022/06/26 11:26:46;;;;;;;0.95;0.60;;;;;;;;;;10423355;28;20191;-69
2022/06/26 11:31:50;;;;;;;0.50;0.50;;;;;;;;;;10404067;28;20939;-69
2022/06/26 11:36:56;;;;;;;1.27;0.60;;;;;;;;;;10417940;28;20213;-68
2022/06/26 11:41:57;;;;;;;0.50;0.50;;;;;;;;;;10420619;28;20329;-69
2022/06/26 11:46:58;;;;;;;0.60;0.60;;;;;;;;;;10417274;28;20180;-69
2022/06/26 11:51:59;;;;;;;0.47;0.47;;;;;;;;;;10414806;28;20226;-68
2022/06/26 11:57:08;;;;;;;2.15;0.50;;;;;;;;;;10420979;28;21114;-69
2022/06/26 12:02:22;;;;;;;0.40;0.40;;;;;;;;;;10388729;28;20346;-70
2022/06/26 12:07:24;;;;;;;0.40;0.40;;;;;;;;;;10414149;28;20166;-69
2022/06/26 12:12:28;;;;;;;0.47;0.47;;;;;;;;;;10416562;28;20607;-70
2022/06/26 12:17:30;;;;;;;0.88;0.60;;;;;;;;;;10409011;28;20260;-70
2022/06/26 12:22:32;;;;;;;0.57;0.57;;;;;;;;;;10417280;28;20210;-69
2022/06/26 12:27:37;;;;;;;1.60;0.60;;;;;;;;;;10412235;28;20189;-69
2022/06/26 12:32:38;;;;;;;0.50;0.50;;;;;;;;;;10409870;28;20215;-70
2022/06/26 12:37:39;;;;;;;0.50;0.50;;;;;;;;;;10415789;28;20281;-69
2022/06/26 12:42:40;;;;;;;0.40;0.40;;;;;;;;;;10419126;28;20187;-69
2022/06/26 12:47:43;;;;;;;0.50;0.50;;;;;;;;;;10418742;28;20214;-69
2022/06/26 12:52:44;;;;;;;0.40;0.40;;;;;;;;;;10414356;28;20592;-70
2022/06/26 12:57:46;;;;;;;0.57;0.57;;;;;;;;;;10424604;28;20217;-70
2022/06/26 13:02:47;;;;;;;0.50;0.50;;;;;;;;;;10400006;28;20225;-70
2022/06/26 13:07:48;;;;;;;0.50;0.50;;;;;;;;;;10418677;28;20186;-70
2022/06/26 13:12:49;;;;;;;0.88;0.47;;;;;;;;;;10394819;28;20812;-69
2022/06/26 13:17:50;;;;;;;0.40;0.40;;;;;;;;;;10413358;28;20365;-69
2022/06/26 13:22:51;;;;;;;0.50;0.50;;;;;;;;;;10419256;28;20209;-69
2022/06/26 13:27:54;;;;;;;0.85;0.63;;;;;;;;;;10419578;28;20253;-70
2022/06/26 13:32:55;;;;;;;0.82;0.60;;;;;;;;;;10404125;28;20215;-71
2022/06/26 13:37:56;;;;;;;1.50;1.50;;;;;;;;;;10396481;28;20206;-72
2022/06/26 13:42:57;;;;;;;0.70;0.70;;;;;;;;;;10427693;28;20257;-71
2022/06/26 13:47:58;;;;;;;0.57;0.57;;;;;;;;;;10422933;28;20233;-70
2022/06/26 13:52:59;;;;;;;0.60;0.50;;;;;;;;;;10423850;28;20198;-71
2022/06/26 13:58:00;;;;;;;0.80;0.80;;;;;;;;;;10420493;28;20175;-71
2022/06/26 14:03:01;;;;;;;1.02;0.50;;;;;;;;;;10412516;28;20214;-71
2022/06/26 14:08:02;;;;;;;1.33;0.90;;;;;;;;;;10424256;28;20613;-72
2022/06/26 14:13:04;;;;;;;0.50;0.50;;;;;;;;;;10424199;28;20665;-71
2022/06/26 14:18:05;;;;;;;0.50;0.50;;;;;;;;;;10422758;28;20206;-72
2022/06/26 14:28:27;;;;;;;0.52;0.52;;;;;;;;;;10423124;28;20201;-71
2022/06/26 14:33:28;;;;;;;1.90;0.52;;;;;;;;;;10409844;28;20237;-71
2022/06/26 14:38:30;;;;;;;0.60;0.60;;;;;;;;;;10415105;28;20182;-69
2022/06/26 14:43:32;;;;;;;1.85;0.50;;;;;;;;;;10417847;28;20195;-71
2022/06/26 14:48:33;;;;;;;0.95;0.60;;;;;;;;;;10416597;28;20281;-71
2022/06/26 14:53:34;;;;;;;0.50;0.50;;;;;;;;;;10416370;28;20213;-71
2022/06/26 14:58:35;;;;;;;0.52;0.52;;;;;;;;;;10423825;28;20583;-70
2022/06/26 15:03:36;;;;;;;0.40;0.40;;;;;;;;;;10403837;28;20217;-70
2022/06/26 15:08:37;;;;;;;0.50;0.50;;;;;;;;;;10420848;28;20198;-70
2022/06/26 15:13:39;;;;;;;1.55;0.60;;;;;;;;;;10417424;28;20205;-69
2022/06/26 15:18:40;;;;;;;1.73;0.40;;;;;;;;;;10410522;28;20206;-69
2022/06/26 15:23:41;;;;;;;0.68;0.50;;;;;;;;;;10415116;28;24472;-70
2022/06/26 15:28:42;;;;;;;0.60;0.60;;;;;;;;;;10418449;28;20186;-72
2022/06/26 15:33:43;;;;;;;0.60;0.60;;;;;;;;;;10419175;28;21121;-71
2022/06/26 15:38:45;;;;;;;0.50;0.50;;;;;;;;;;10415267;28;20194;-71
2022/06/26 15:43:46;;;;;;;0.63;0.63;;;;;;;;;;10403878;28;20237;-70
2022/06/26 15:48:47;;;;;;;0.70;0.68;;;;;;;;;;10420006;28;20867;-70
2022/06/26 15:53:48;;;;;;;0.57;0.55;;;;;;;;;;10419844;28;20198;-69
2022/06/26 15:58:50;;;;;;;0.60;0.60;;;;;;;;;;10417820;28;20186;-71
2022/06/26 16:03:51;;;;;;;0.60;0.60;;;;;;;;;;10414956;28;20223;-70
2022/06/26 16:08:54;;;;;;;0.57;0.57;;;;;;;;;;10415871;28;20932;-69
2022/06/26 16:13:56;;;;;;;0.50;0.50;;;;;;;;;;10415140;28;20230;-70
2022/06/26 16:18:57;;;;;;;0.57;0.57;;;;;;;;;;10415411;28;20206;-70
2022/06/26 16:29:18;;;;;;;0.57;0.57;;;;;;;;;;10418765;28;20195;-69
2022/06/26 16:34:19;;;;;;;0.52;0.52;;;;;;;;;;10417210;28;20214;-70
2022/06/26 16:39:20;;;;;;;0.50;0.50;;;;;;;;;;10422690;28;20712;-69
2022/06/26 16:44:21;;;;;;;0.55;0.52;;;;;;;;;;10421836;28;21133;-73
2022/06/26 16:49:22;;;;;;;0.70;0.70;;;;;;;;;;10424236;28;20234;-72
2022/06/26 16:54:23;;;;;;;1.10;0.60;;;;;;;;;;10425104;28;20202;-71
2022/06/26 16:59:24;;;;;;;0.60;0.60;;;;;;;;;;10425352;28;20616;-71
2022/06/26 17:04:26;;;;;;;0.60;0.60;;;;;;;;;;10416378;28;20210;-71
2022/06/26 17:09:27;;;;;;;0.68;0.68;;;;;;;;;;10393101;28;20307;-72
2022/06/26 17:14:28;;;;;;;0.60;0.60;;;;;;;;;;10415225;28;20202;-70
2022/06/26 17:19:29;;;;;;;0.73;0.73;;;;;;;;;;10413834;28;20568;-68
2022/06/26 17:24:30;;;;;;;0.80;0.80;;;;;;;;;;10416030;28;20183;-69
2022/06/26 17:29:32;;;;;;;0.90;0.90;;;;;;;;;;10415675;28;20256;-69
2022/06/26 17:34:33;;;;;;;2.67;1.20;;;;;;;;;;10386412;28;20222;-68
2022/06/26 17:39:34;;;;;;;2.05;0.80;;;;;;;;;;10418998;28;20183;-69
2022/06/26 17:44:36;;;;;;;2.85;1.00;;;;;;;;;;10419174;28;20693;-70
2022/06/26 17:49:37;;;;;;;1.13;1.02;;;;;;;;;;10419490;28;20234;-68
2022/06/26 17:54:39;;;;;;;1.65;0.90;;;;;;;;;;10417743;28;20209;-71
2022/06/26 17:59:40;;;;;;;0.88;0.88;;;;;;;;;;10419003;28;20266;-66
2022/06/26 18:04:42;;;;;;;1.10;1.10;;;;;;;;;;10416766;28;20210;-67
2022/06/26 18:09:43;;;;;;;1.10;1.10;;;;;;;;;;10417352;28;20197;-67
2022/06/26 18:14:44;;;;;;;2.85;0.80;;;;;;;;;;10418243;28;20245;-68
2022/06/26 18:19:45;;;;;;;2.60;1.23;;;;;;;;;;10417557;28;20199;-67
2022/06/26 18:24:46;;;;;;;1.13;1.02;;;;;;;;;;10418680;28;20965;-68
2022/06/26 18:29:49;;;;;;;1.08;1.08;;;;;;;;;;10418714;28;20278;-68
2022/06/26 18:34:50;;;;;;;2.60;1.20;;;;;;;;;;10416119;28;20313;-69
2022/06/26 18:39:51;;;;;;;1.58;1.52;;;;;;;;;;10418707;28;20190;-68
2022/06/26 18:44:52;;;;;;;1.83;1.30;;;;;;;;;;10420277;28;20194;-68
2022/06/26 18:49:54;;;;;;;1.50;1.40;;;;;;;;;;10416984;28;20345;-69
2022/06/26 18:54:55;;;;;;;1.30;1.27;;;;;;;;;;10400314;28;20279;-70
2022/06/26 18:59:56;;;;;;;1.38;1.38;;;;;;;;;;10420966;28;20183;-67
2022/06/26 19:04:57;;;;;;;1.60;1.50;;;;;;;;;;10405512;28;20233;-69
2022/06/26 19:09:58;;;;;;;1.52;1.50;;;;;;;;;;10415574;28;20184;-72
2022/06/26 19:14:59;;;;;;;1.30;1.23;;;;;;;;;;10420631;28;20218;-72
2022/06/26 19:20:00;;;;;;;1.42;1.42;;;;;;;;;;10415746;28;20202;-70
2022/06/26 19:25:02;;;;;;;1.60;1.50;;;;;;;;;;10420423;28;20183;-71
2022/06/26 19:30:03;;;;;;;2.78;1.35;;;;;;;;;;10401873;28;20225;-75
2022/06/26 19:35:05;;;;;;;1.55;1.50;;;;;;;;;;10409876;28;20346;-71
2022/06/26 19:40:07;;;;;;;1.33;1.33;;;;;;;;;;10420021;28;20191;-70
2022/06/26 19:45:08;;;;;;;1.60;1.60;;;;;;;;;;10421795;28;20277;-71
2022/06/26 19:55:30;;;;;;;2.05;1.63;;;;;;;;;;10420905;28;20202;-73
2022/06/26 20:00:32;;;;;;;2.08;1.60;;;;;;;;;;10407357;28;20339;-72
2022/06/26 20:05:33;;;;;;;3.28;1.50;;;;;;;;;;10416149;28;20193;-71
2022/06/26 20:10:34;;;;;;;2.00;1.90;;;;;;;;;;10414104;28;20218;-71
2022/06/26 20:15:36;;;;;;;2.00;1.73;;;;;;;;;;10424791;28;20586;-71
2022/06/26 20:20:38;;;;;;;1.65;1.65;;;;;;;;;;10410288;28;20208;-71
2022/06/26 20:25:39;;;;;;;1.85;1.85;;;;;;;;;;10425136;28;20182;-71
2022/06/26 20:30:40;;;;;;;2.20;1.88;;;;;;;;;;10420000;28;20244;-71
2022/06/26 20:35:42;;;;;;;2.17;2.00;;;;;;;;;;10429953;28;20207;-70
2022/06/26 20:40:43;;;;;;;1.92;1.83;;;;;;;;;;10428141;28;20179;-70
2022/06/26 20:45:44;;;;;;;2.25;2.15;;;;;;;;;;10416741;28;20186;-71
2022/06/26 20:50:45;;;;;;;2.13;2.13;;;;;;;;;;10422009;28;20321;-71
2022/06/26 20:55:46;;;;;;;2.42;2.33;;;;;;;;;;10421475;28;20597;-71
2022/06/26 21:00:47;;;;;;;2.72;2.55;;;;;;;;;;10392640;28;20225;-71
2022/06/26 21:05:49;;;;;;;2.45;2.45;;;;;;;;;;10415029;28;20276;-71
2022/06/26 21:10:50;;;;;;;2.70;2.47;;;;;;;;;;10412729;28;20714;-70
2022/06/26 21:15:51;;;;;;;2.55;2.45;;;;;;;;;;10421012;28;20577;-71
2022/06/26 21:20:52;;;;;;;3.00;2.70;;;;;;;;;;10423842;28;20601;-71
2022/06/26 21:25:54;;;;;;;2.70;2.70;;;;;;;;;;10425728;28;20199;-71
2022/06/26 21:30:55;;;;;;;3.17;3.08;;;;;;;;;;10409975;28;20278;-71
2022/06/26 21:35:56;;;;;;;2.80;2.60;;;;;;;;;;10422847;28;20210;-71
2022/06/26 21:40:57;;;;;;;2.97;2.88;;;;;;;;;;10421571;28;20658;-71
2022/06/26 21:45:58;;;;;;;3.05;3.05;;;;;;;;;;10422420;28;20265;-71
2022/06/26 21:50:59;;;;;;;3.35;3.25;;;;;;;;;;10424035;28;20301;-71
2022/06/26 21:56:00;;;;;;;3.30;3.05;;;;;;;;;;10418495;28;20199;-71
2022/06/26 22:01:01;;;;;;;2.95;2.92;;;;;;;;;;10422796;28;20226;-70
2022/06/26 22:06:02;;;;;;;3.22;3.03;;;;;;;;;;10410000;28;20191;-71
2022/06/26 22:11:03;;;;;;;3.15;3.00;;;;;;;;;;10427299;28;20271;-71
2022/06/26 22:16:04;;;;;;;3.17;3.17;;;;;;;;;;10410169;28;20261;-71
2022/06/26 22:21:06;;;;;;;3.15;2.95;;;;;;;;;;10430733;28;21138;-71
2022/06/26 22:31:27;;;;;;;3.78;3.58;;;;;;;;;;10423660;28;20720;-71
2022/06/26 22:36:28;;;;;;;3.60;3.50;;;;;;;;;;10432431;28;20257;-71
2022/06/26 22:41:30;;;;;;;3.92;3.85;;;;;;;;;;10425126;28;20183;-69
2022/06/26 22:46:31;;;;;;;4.00;3.78;;;;;;;;;;10426304;28;20175;-70
2022/06/26 22:51:32;;;;;;;3.70;3.50;;;;;;;;;;10423448;28;20227;-69
2022/06/26 22:56:33;;;;;;;4.30;4.10;;;;;;;;;;10422479;28;20599;-70
2022/06/26 23:01:34;;;;;;;3.78;3.58;;;;;;;;;;10421172;28;20294;-70
2022/06/26 23:06:35;;;;;;;3.92;3.70;;;;;;;;;;10419961;28;20185;-69
2022/06/26 23:11:38;;;;;;;4.82;4.63;;;;;;;;;;10422377;28;20189;-70
2022/06/26 23:16:39;;;;;;;3.65;3.45;;;;;;;;;;10420262;28;20251;-69
2022/06/26 23:21:40;;;;;;;4.15;3.95;;;;;;;;;;10423814;28;20867;-70
2022/06/26 23:26:41;;;;;;;4.00;4.00;;;;;;;;;;10432003;28;20179;-70
2022/06/26 23:31:42;;;;;;;4.40;4.30;;;;;;;;;;10419580;28;20591;-70
2022/06/26 23:36:43;;;;;;;4.82;4.45;;;;;;;;;;10423228;28;20215;-71
2022/06/26 23:41:44;;;;;;;5.22;4.82;;;;;;;;;;10427885;28;20772;-71
2022/06/26 23:46:45;;;;;;;5.10;4.43;;;;;;;;;;10423716;28;20706;-72
2022/06/26 23:51:47;;;;;;;4.95;4.57;;;;;;;;;;10406858;28;20242;-72
2022/06/26 23:56:48;;;;;;;4.80;4.60;;;;;;;;;;10419750;28;20268;-71
